createdAt,value
2018-02-22T00:01:13.745Z,31.23
2018-02-22T00:03:42.980Z,27.67
2018-02-22T00:06:12.246Z,27.70
2018-02-22T00:08:41.431Z,28.60
2018-02-22T00:11:10.723Z,28.63
2018-02-22T00:13:42.025Z,29.73
2018-02-22T00:16:11.297Z,27.87
2018-02-22T00:18:40.517Z,29.70
2018-02-22T00:21:09.755Z,31.47
2018-02-22T00:23:38.972Z,28.80
2018-02-22T00:26:08.258Z,28.53
2018-02-22T00:28:37.493Z,28.10
2018-02-22T00:31:06.887Z,28.30
2018-02-22T00:33:36.193Z,31.40
2018-02-22T00:36:05.412Z,29.47
2018-02-22T00:38:34.710Z,27.77
2018-02-22T00:41:03.974Z,29.07
2018-02-22T00:43:33.248Z,31.73
2018-02-22T00:46:02.516Z,29.20
2018-02-22T00:48:31.774Z,31.10
2018-02-22T00:51:01.076Z,29.33
2018-02-22T00:53:30.332Z,29.23
2018-02-22T00:55:59.568Z,35.77
2018-02-22T00:58:28.834Z,29.03
2018-02-22T01:00:58.851Z,30.77
2018-02-22T01:03:28.109Z,30.00
2018-02-22T01:05:57.346Z,30.37
2018-02-22T01:08:26.580Z,28.50
2018-02-22T01:10:55.923Z,27.53
2018-02-22T01:13:25.206Z,29.07
2018-02-22T01:15:54.507Z,31.73
2018-02-22T01:18:23.780Z,28.83
2018-02-22T01:20:53.095Z,29.67
2018-02-22T01:23:22.407Z,29.67
2018-02-22T01:25:51.891Z,31.37
2018-02-22T01:28:21.088Z,27.83
2018-02-22T01:30:50.305Z,29.13
2018-02-22T01:33:19.632Z,28.97
2018-02-22T01:35:49.614Z,28.47
2018-02-22T01:38:18.851Z,33.37
2018-02-22T01:40:49.014Z,32.07
2018-02-22T01:43:19.009Z,32.10
2018-02-22T01:45:48.303Z,27.07
2018-02-22T01:48:17.607Z,27.67
2018-02-22T01:50:47.879Z,30.83
2018-02-22T01:53:17.146Z,27.60
2018-02-22T01:55:46.450Z,33.33
2018-02-22T01:58:15.664Z,36.17
2018-02-22T02:00:44.963Z,32.87
2018-02-22T02:03:14.228Z,32.90
2018-02-22T02:05:43.527Z,37.67
2018-02-22T02:08:12.784Z,30.87
2018-02-22T02:10:43.398Z,29.07
2018-02-22T02:13:12.662Z,31.13
2018-02-22T02:15:41.961Z,29.07
2018-02-22T02:18:11.967Z,32.37
2018-02-22T02:20:41.230Z,31.67
2018-02-22T02:23:11.241Z,27.37
2018-02-22T02:25:41.224Z,34.67
2018-02-22T02:28:11.256Z,33.10
2018-02-22T02:30:40.584Z,33.30
2018-02-22T02:33:09.827Z,32.43
2018-02-22T02:35:39.066Z,35.27
2018-02-22T02:38:08.361Z,32.40
2018-02-22T02:40:37.574Z,32.50
2018-02-22T02:43:07.655Z,35.13
2018-02-22T02:45:36.937Z,34.03
2018-02-22T02:48:06.198Z,35.23
2018-02-22T02:50:36.926Z,33.43
2018-02-22T02:53:06.184Z,34.07
2018-02-22T02:55:36.159Z,33.80
2018-02-22T02:58:05.397Z,37.00
2018-02-22T03:00:34.647Z,37.70
2018-02-22T03:03:03.935Z,37.50
2018-02-22T03:05:33.949Z,34.03
2018-02-22T03:08:03.210Z,34.47
2018-02-22T03:10:32.443Z,34.63
2018-02-22T03:13:01.673Z,38.37
2018-02-22T03:15:30.941Z,40.60
2018-02-22T03:18:00.209Z,32.90
2018-02-22T03:20:30.261Z,36.87
2018-02-22T03:22:59.602Z,36.03
2018-02-22T03:25:28.887Z,38.00
2018-02-22T03:27:58.197Z,35.10
2018-02-22T03:30:30.295Z,38.87
2018-02-22T03:33:00.036Z,40.57
2018-02-22T03:35:29.288Z,35.90
2018-02-22T03:37:58.564Z,37.40
2018-02-22T03:40:27.858Z,34.67
2018-02-22T03:42:57.852Z,39.03
2018-02-22T03:45:27.849Z,39.93
2018-02-22T03:47:57.109Z,37.93
2018-02-22T03:50:26.446Z,37.83
2018-02-22T03:52:56.439Z,35.70
2018-02-22T03:55:26.443Z,39.00
2018-02-22T03:57:55.886Z,35.33
2018-02-22T04:00:25.160Z,37.40
2018-02-22T04:02:54.378Z,39.20
2018-02-22T04:05:23.672Z,39.97
2018-02-22T04:07:52.861Z,36.93
2018-02-22T04:10:22.125Z,42.53
2018-02-22T04:12:51.342Z,39.37
2018-02-22T04:15:20.596Z,35.83
2018-02-22T04:17:51.000Z,39.03
2018-02-22T04:20:20.222Z,42.20
2018-02-22T04:22:50.282Z,40.90
2018-02-22T04:25:19.520Z,40.37
2018-02-22T04:27:48.783Z,35.93
2018-02-22T04:30:18.015Z,40.67
2018-02-22T04:32:47.297Z,43.27
2018-02-22T04:35:16.637Z,39.83
2018-02-22T04:37:45.896Z,36.90
2018-02-22T04:40:15.195Z,39.43
2018-02-22T04:42:44.405Z,42.40
2018-02-22T04:45:13.678Z,37.37
2018-02-22T04:47:42.902Z,38.13
2018-02-22T04:50:12.161Z,41.30
2018-02-22T04:52:41.389Z,36.63
2018-02-22T04:55:10.601Z,36.07
2018-02-22T04:57:40.603Z,38.27
2018-02-22T05:00:09.875Z,37.90
2018-02-22T05:02:39.083Z,36.90
2018-02-22T05:05:08.362Z,39.87
2018-02-22T05:07:37.580Z,37.63
2018-02-22T05:10:07.670Z,37.73
2018-02-22T05:12:36.893Z,34.53
2018-02-22T05:15:06.104Z,38.03
2018-02-22T05:17:35.352Z,40.73
2018-02-22T05:20:05.744Z,38.27
2018-02-22T05:22:37.155Z,35.20
2018-02-22T05:25:06.585Z,41.13
2018-02-22T05:27:36.053Z,36.43
2018-02-22T05:30:05.456Z,40.03
2018-02-22T05:32:34.890Z,34.30
2018-02-22T05:35:04.341Z,39.37
2018-02-22T05:37:33.602Z,38.90
2018-02-22T05:40:02.841Z,41.73
2018-02-22T05:42:44.348Z,37.00
2018-02-22T05:45:13.713Z,36.80
2018-02-22T05:47:43.941Z,35.73
2018-02-22T05:50:13.251Z,38.87
2018-02-22T05:52:46.150Z,41.53
2018-02-22T05:55:15.727Z,47.03
2018-02-22T05:57:45.989Z,40.37
2018-02-22T06:00:33.154Z,37.63
2018-02-22T06:03:02.439Z,41.33
2018-02-22T06:05:31.819Z,36.83
2018-02-22T06:08:01.279Z,37.93
2018-02-22T06:10:30.729Z,42.60
2018-02-22T06:13:00.171Z,38.07
2018-02-22T06:15:29.580Z,39.77
2018-02-22T06:18:03.246Z,37.53
2018-02-22T06:20:42.812Z,39.67
2018-02-22T06:23:26.414Z,41.93
2018-02-22T06:25:58.548Z,37.87
2018-02-22T06:28:27.871Z,40.00
2018-02-22T06:30:57.140Z,39.57
2018-02-22T06:33:26.465Z,37.30
2018-02-22T06:35:56.053Z,34.83
2018-02-22T06:38:26.388Z,41.27
2018-02-22T06:40:55.759Z,44.83
2018-02-22T06:43:25.050Z,40.53
2018-02-22T06:45:54.330Z,37.00
2018-02-22T06:48:23.589Z,39.27
2018-02-22T06:50:52.881Z,39.23
2018-02-22T06:53:22.214Z,36.80
2018-02-22T06:55:51.523Z,42.57
2018-02-22T06:58:20.786Z,39.67
2018-02-22T07:00:50.093Z,34.43
2018-02-22T07:03:20.073Z,35.77
2018-02-22T07:05:49.371Z,34.67
2018-02-22T07:08:18.664Z,35.23
2018-02-22T07:10:47.961Z,34.83
2018-02-22T07:13:17.199Z,33.37
2018-02-22T07:15:46.463Z,34.70
2018-02-22T07:18:16.526Z,31.97
2018-02-22T07:20:45.826Z,28.03
2018-02-22T07:23:16.790Z,32.03
2018-02-22T07:25:44.494Z,33.20
2018-02-22T07:28:13.702Z,30.67
2018-02-22T07:30:43.342Z,31.37
2018-02-22T07:33:13.193Z,31.87
2018-02-22T07:35:42.433Z,29.97
2018-02-22T07:38:11.653Z,34.10
2018-02-22T07:40:40.910Z,30.03
2018-02-22T07:43:10.140Z,31.63
2018-02-22T07:45:39.391Z,35.53
2018-02-22T07:48:09.326Z,30.73
2018-02-22T07:50:38.637Z,29.57
2018-02-22T07:53:07.964Z,29.63
2018-02-22T07:55:37.247Z,30.10
2018-02-22T07:58:07.392Z,28.37
2018-02-22T08:00:36.739Z,27.20
2018-02-22T08:03:07.227Z,24.97
2018-02-22T08:05:36.582Z,27.27
2018-02-22T08:08:05.852Z,31.70
2018-02-22T08:10:35.081Z,21.27
2018-02-22T08:13:04.494Z,22.93
2018-02-22T08:15:33.828Z,20.20
2018-02-22T08:18:03.091Z,27.57
2018-02-22T08:20:32.321Z,25.90
2018-02-22T08:23:01.582Z,22.43
2018-02-22T08:25:30.850Z,19.77
2018-02-22T08:28:00.846Z,21.73
2018-02-22T08:30:30.077Z,22.60
2018-02-22T08:32:59.394Z,21.77
2018-02-22T08:35:28.752Z,19.23
2018-02-22T08:37:58.034Z,17.97
2018-02-22T08:40:27.334Z,19.13
2018-02-22T08:42:56.577Z,19.63
2018-02-22T08:45:26.591Z,16.50
2018-02-22T08:47:55.824Z,14.93
2018-02-22T08:50:25.836Z,17.97
2018-02-22T08:52:55.119Z,16.03
2018-02-22T08:55:27.891Z,17.93
2018-02-22T08:57:57.177Z,16.90
2018-02-22T09:00:26.405Z,17.20
2018-02-22T09:02:55.718Z,14.63
2018-02-22T09:05:24.932Z,13.40
2018-02-22T09:07:54.187Z,16.23
2018-02-22T09:10:24.278Z,17.00
2018-02-22T09:12:53.764Z,13.77
2018-02-22T09:15:22.995Z,12.70
2018-02-22T09:17:52.312Z,12.27
2018-02-22T09:20:21.607Z,14.17
2018-02-22T09:22:51.601Z,13.53
2018-02-22T09:25:20.871Z,14.30
2018-02-22T09:27:50.154Z,11.63
2018-02-22T09:30:19.351Z,12.43
2018-02-22T09:32:48.716Z,11.83
2018-02-22T09:35:17.958Z,10.23
2018-02-22T09:37:47.191Z,13.83
2018-02-22T09:40:16.393Z,9.67
2018-02-22T09:42:45.642Z,10.97
2018-02-22T09:45:14.950Z,11.67
2018-02-22T09:47:44.191Z,9.70
2018-02-22T09:50:13.468Z,9.50
2018-02-22T09:52:42.758Z,11.63
2018-02-22T09:55:12.787Z,11.63
2018-02-22T09:57:42.045Z,10.60
2018-02-22T10:00:11.274Z,10.17
2018-02-22T10:02:40.636Z,9.23
2018-02-22T10:05:10.671Z,9.30
2018-02-22T10:07:39.839Z,9.77
2018-02-22T10:10:09.118Z,10.23
2018-02-22T10:12:39.108Z,9.23
2018-02-22T10:15:09.146Z,14.50
2018-02-22T10:17:38.415Z,10.63
2018-02-22T10:20:07.633Z,11.00
2018-02-22T10:22:36.893Z,13.43
2018-02-22T10:25:06.214Z,10.23
2018-02-22T10:27:35.480Z,9.93
2018-02-22T10:30:04.767Z,11.20
2018-02-22T10:32:34.143Z,11.37
2018-02-22T10:35:04.268Z,10.43
2018-02-22T10:37:33.607Z,12.67
2018-02-22T10:40:02.892Z,11.67
2018-02-22T10:42:32.130Z,11.63
2018-02-22T10:45:01.349Z,11.97
2018-02-22T10:47:31.297Z,9.27
2018-02-22T10:50:00.550Z,10.63
2018-02-22T10:52:30.632Z,11.27
2018-02-22T10:55:00.721Z,12.03
2018-02-22T10:57:29.975Z,13.00
2018-02-22T10:59:59.235Z,15.73
2018-02-22T11:02:34.278Z,12.97
2018-02-22T11:05:03.497Z,12.03
2018-02-22T11:07:33.540Z,13.63
2018-02-22T11:10:02.796Z,13.23
2018-02-22T11:12:32.028Z,13.90
2018-02-22T11:15:01.265Z,11.67
2018-02-22T11:17:30.484Z,11.73
2018-02-22T11:20:00.550Z,13.90
2018-02-22T11:22:29.779Z,11.53
2018-02-22T11:24:58.998Z,13.23
2018-02-22T11:27:28.234Z,11.27
2018-02-22T11:29:57.520Z,12.27
2018-02-22T11:32:26.806Z,14.03
2018-02-22T11:34:56.057Z,13.63
2018-02-22T11:37:25.302Z,15.63
2018-02-22T11:39:54.538Z,10.97
2018-02-22T11:42:23.741Z,14.07
2018-02-22T11:44:53.057Z,14.00
2018-02-22T11:47:22.252Z,13.60
2018-02-22T11:49:51.504Z,16.17
2018-02-22T11:52:20.774Z,13.73
2018-02-22T11:54:50.775Z,13.30
2018-02-22T11:57:20.025Z,16.20
2018-02-22T11:59:50.065Z,13.03
2018-02-22T12:02:20.411Z,13.60
2018-02-22T12:04:50.204Z,15.17
2018-02-22T12:07:20.220Z,15.43
2018-02-22T12:09:49.472Z,15.17
2018-02-22T12:12:18.763Z,14.63
2018-02-22T12:14:48.792Z,15.53
2018-02-22T12:17:18.061Z,14.07
2018-02-22T12:19:47.340Z,13.90
2018-02-22T12:22:17.353Z,13.87
2018-02-22T12:24:46.602Z,15.70
2018-02-22T12:27:15.795Z,11.77
2018-02-22T12:29:45.101Z,12.93
2018-02-22T12:32:14.360Z,12.70
2018-02-22T12:34:43.607Z,13.57
2018-02-22T12:37:13.602Z,13.93
2018-02-22T12:39:42.789Z,14.83
2018-02-22T12:42:11.993Z,13.37
2018-02-22T12:44:41.280Z,15.23
2018-02-22T12:47:10.533Z,11.40
2018-02-22T12:49:39.729Z,14.87
2018-02-22T12:52:09.011Z,14.70
2018-02-22T12:54:38.956Z,12.60
2018-02-22T12:57:08.249Z,13.50
2018-02-22T12:59:37.519Z,15.27
2018-02-22T13:02:06.721Z,15.93
2018-02-22T13:04:36.036Z,14.30
2018-02-22T13:07:05.277Z,13.20
2018-02-22T13:09:34.467Z,15.13
2018-02-22T13:12:03.725Z,15.97
2018-02-22T13:14:32.973Z,13.33
2018-02-22T13:17:02.271Z,12.90
2018-02-22T13:19:31.564Z,14.23
2018-02-22T13:22:00.811Z,13.70
2018-02-22T13:24:30.101Z,12.80
2018-02-22T13:26:59.348Z,12.80
2018-02-22T13:29:28.547Z,13.33
2018-02-22T13:31:57.797Z,15.43
2018-02-22T13:34:31.418Z,15.23
2018-02-22T13:37:00.652Z,14.17
2018-02-22T13:39:30.623Z,15.27
2018-02-22T13:41:59.905Z,14.70
2018-02-22T13:44:41.026Z,12.63
2018-02-22T13:47:10.268Z,12.93
2018-02-22T13:49:51.368Z,12.50
2018-02-22T13:52:20.605Z,13.23
2018-02-22T13:54:50.598Z,15.17
2018-02-22T13:57:19.888Z,12.67
2018-02-22T13:59:49.121Z,12.47
2018-02-22T14:02:26.135Z,12.03
2018-02-22T14:04:55.372Z,15.07
2018-02-22T14:07:24.670Z,12.83
2018-02-22T14:09:53.867Z,10.77
2018-02-22T14:12:23.115Z,14.10
2018-02-22T14:14:52.341Z,11.40
2018-02-22T14:17:21.610Z,11.53
2018-02-22T14:19:51.616Z,12.20
2018-02-22T14:22:20.910Z,12.03
2018-02-22T14:24:50.092Z,9.97
2018-02-22T14:27:19.366Z,10.63
2018-02-22T14:29:48.631Z,11.97
2018-02-22T14:32:17.821Z,12.63
2018-02-22T14:34:47.126Z,10.27
2018-02-22T14:37:16.372Z,12.37
2018-02-22T14:39:45.610Z,10.40
2018-02-22T14:42:14.789Z,13.23
2018-02-22T14:44:44.060Z,11.07
2018-02-22T14:47:14.064Z,13.83
2018-02-22T14:49:43.295Z,11.23
2018-02-22T14:52:12.578Z,11.10
2018-02-22T14:54:41.828Z,11.13
2018-02-22T14:57:11.061Z,11.90
2018-02-22T14:59:40.266Z,13.13
2018-02-22T15:02:24.467Z,9.77
2018-02-22T15:04:53.760Z,12.23
2018-02-22T15:07:23.028Z,10.43
2018-02-22T15:09:53.060Z,12.03
2018-02-22T15:12:22.367Z,10.90
2018-02-22T15:14:51.635Z,10.67
2018-02-22T15:17:20.928Z,11.20
2018-02-22T15:19:50.689Z,10.30
2018-02-22T15:22:20.811Z,9.40
2018-02-22T15:24:50.057Z,11.90
2018-02-22T15:27:19.254Z,9.43
2018-02-22T15:29:48.437Z,10.37
2018-02-22T15:32:17.800Z,7.80
2018-02-22T15:34:47.014Z,9.87
2018-02-22T15:37:16.292Z,9.30
2018-02-22T15:39:45.533Z,9.17
2018-02-22T15:42:14.818Z,10.37
2018-02-22T15:44:44.060Z,9.00
2018-02-22T15:47:13.328Z,9.33
2018-02-22T15:49:42.604Z,10.37
2018-02-22T15:52:11.908Z,9.47
2018-02-22T15:54:41.992Z,10.77
2018-02-22T15:57:11.248Z,9.87
2018-02-22T15:59:40.464Z,9.13
2018-02-22T16:02:09.747Z,9.27
2018-02-22T16:04:38.924Z,9.27
2018-02-22T16:07:08.141Z,11.23
2018-02-22T16:09:37.364Z,10.10
2018-02-22T16:12:06.608Z,10.13
2018-02-22T16:14:36.715Z,9.10
2018-02-22T16:17:05.941Z,9.20
2018-02-22T16:19:35.178Z,9.57
2018-02-22T16:22:05.234Z,12.30
2018-02-22T16:24:34.482Z,8.83
2018-02-22T16:27:03.690Z,9.10
2018-02-22T16:29:32.903Z,9.93
2018-02-22T16:32:02.422Z,10.60
2018-02-22T16:34:31.746Z,10.80
2018-02-22T16:37:00.916Z,9.30
2018-02-22T16:39:30.193Z,11.10
2018-02-22T16:41:59.455Z,8.47
2018-02-22T16:44:28.659Z,9.87
2018-02-22T16:46:57.879Z,10.87
2018-02-22T16:49:27.141Z,12.63
2018-02-22T16:51:57.156Z,10.90
2018-02-22T16:54:27.207Z,11.87
2018-02-22T16:56:57.167Z,9.80
2018-02-22T16:59:26.427Z,11.10
2018-02-22T17:01:55.692Z,11.27
2018-02-22T17:04:24.901Z,11.47
2018-02-22T17:06:54.152Z,10.03
2018-02-22T17:09:23.458Z,10.00
2018-02-22T17:11:52.692Z,10.47
2018-02-22T17:14:26.504Z,11.93
2018-02-22T17:16:56.533Z,12.50
2018-02-22T17:19:25.835Z,10.10
2018-02-22T17:21:55.067Z,10.73
2018-02-22T17:24:25.081Z,9.50
2018-02-22T17:27:00.247Z,10.90
2018-02-22T17:29:35.208Z,10.47
2018-02-22T17:32:10.176Z,12.30
2018-02-22T17:34:39.563Z,12.67
2018-02-22T17:37:17.510Z,12.87
2018-02-22T17:40:03.665Z,11.53
2018-02-22T17:42:33.592Z,12.30
2018-02-22T17:45:05.777Z,11.97
2018-02-22T17:47:42.987Z,13.27
2018-02-22T17:50:13.005Z,13.47
2018-02-22T17:52:42.427Z,12.90
2018-02-22T17:55:12.576Z,10.23
2018-02-22T17:57:41.913Z,10.50
2018-02-22T18:00:11.146Z,10.33
2018-02-22T18:02:40.396Z,12.37
2018-02-22T18:05:10.123Z,16.03
2018-02-22T18:07:40.146Z,11.00
2018-02-22T18:10:10.301Z,11.03
2018-02-22T18:12:39.562Z,11.83
2018-02-22T18:15:08.992Z,10.97
2018-02-22T18:17:38.318Z,13.07
2018-02-22T18:20:10.334Z,9.20
2018-02-22T18:22:39.661Z,10.83
2018-02-22T18:25:09.001Z,9.27
2018-02-22T18:27:38.247Z,11.70
2018-02-22T18:30:07.510Z,10.70
2018-02-22T18:32:36.835Z,11.50
2018-02-22T18:35:06.941Z,11.90
2018-02-22T18:37:41.911Z,10.50
2018-02-22T18:40:17.753Z,9.13
2018-02-22T18:42:49.882Z,10.30
2018-02-22T18:45:24.973Z,11.93
2018-02-22T18:48:13.201Z,11.93
2018-02-22T18:53:36.639Z,14.13
2018-02-22T18:56:08.778Z,11.90
2018-02-22T18:58:38.020Z,17.47
2018-02-22T19:01:12.809Z,12.60
2018-02-22T19:03:49.723Z,12.17
2018-02-22T19:06:19.195Z,11.93
2018-02-22T19:08:48.456Z,13.17
2018-02-22T19:11:18.494Z,14.37
2018-02-22T19:13:48.641Z,12.23
2018-02-22T19:16:17.998Z,12.87
2018-02-22T19:18:47.302Z,13.43
2018-02-22T19:21:17.402Z,14.07
2018-02-22T19:23:47.417Z,13.03
2018-02-22T19:26:18.507Z,14.27
2018-02-22T19:28:47.764Z,13.93
2018-02-22T19:31:17.068Z,12.07
2018-02-22T19:33:48.474Z,12.57
2018-02-22T19:36:17.722Z,13.00
2018-02-22T19:38:46.991Z,10.87
2018-02-22T19:41:16.474Z,12.07
2018-02-22T19:43:48.649Z,13.10
2018-02-22T19:46:17.986Z,12.70
2018-02-22T19:48:48.795Z,13.20
2018-02-22T19:51:18.057Z,12.87
2018-02-22T19:53:47.376Z,13.57
2018-02-22T19:56:16.710Z,12.87
2018-02-22T19:58:46.008Z,14.27
2018-02-22T20:01:15.338Z,12.27
2018-02-22T20:04:01.789Z,12.30
2018-02-22T20:06:31.824Z,14.63
2018-02-22T20:09:01.122Z,14.07
2018-02-22T20:11:30.406Z,12.47
2018-02-22T20:13:59.735Z,12.57
2018-02-22T20:16:29.059Z,14.93
2018-02-22T20:18:58.304Z,13.77
2018-02-22T20:21:27.542Z,13.73
2018-02-22T20:23:56.863Z,13.43
2018-02-22T20:26:26.180Z,13.23
2018-02-22T20:28:55.500Z,14.70
2018-02-22T20:31:25.526Z,14.03
2018-02-22T20:33:54.785Z,11.77
2018-02-22T20:36:24.073Z,12.27
2018-02-22T20:38:53.396Z,12.07
2018-02-22T20:41:22.647Z,12.07
2018-02-22T20:43:51.937Z,12.13
2018-02-22T20:49:29.907Z,13.00
2018-02-22T20:51:59.192Z,12.33
2018-02-22T20:54:28.557Z,14.23
2018-02-22T20:56:57.845Z,12.00
2018-02-22T20:59:29.243Z,12.53
2018-02-22T21:01:58.574Z,14.30
2018-02-22T21:04:27.852Z,12.93
2018-02-22T21:06:57.144Z,14.00
2018-02-22T21:09:26.437Z,11.97
2018-02-22T21:12:03.711Z,12.73
2018-02-22T21:14:32.936Z,13.30
2018-02-22T21:17:02.230Z,11.40
2018-02-22T21:19:31.534Z,14.47
2018-02-22T21:22:12.355Z,13.53
2018-02-22T21:24:41.649Z,13.27
2018-02-22T21:27:10.925Z,13.93
2018-02-22T21:29:41.009Z,12.53
2018-02-22T21:32:10.292Z,13.53
2018-02-22T21:34:39.590Z,13.70
2018-02-22T21:37:09.627Z,14.03
2018-02-22T21:39:39.897Z,11.13
2018-02-22T21:42:09.222Z,12.40
2018-02-22T21:44:39.384Z,13.10
2018-02-22T21:47:08.763Z,13.30
2018-02-22T21:49:38.162Z,13.90
2018-02-22T21:52:07.580Z,14.30
2018-02-22T21:54:36.891Z,14.70
2018-02-22T21:57:06.298Z,16.40
2018-02-22T21:59:35.843Z,14.10
2018-02-22T22:02:17.754Z,14.73
2018-02-22T22:04:47.201Z,13.97
2018-02-22T22:07:16.577Z,13.90
2018-02-22T22:09:45.972Z,14.47
2018-02-22T22:12:15.391Z,14.20
2018-02-22T22:14:51.905Z,15.03
2018-02-22T22:17:21.316Z,17.17
2018-02-22T22:19:51.495Z,16.77
2018-02-22T22:22:20.854Z,16.07
2018-02-22T22:24:57.597Z,17.77
2018-02-22T22:27:26.995Z,14.90
2018-02-22T22:29:56.366Z,14.77
2018-02-22T22:35:21.558Z,16.17
2018-02-22T22:37:50.947Z,20.40
2018-02-22T22:40:20.323Z,18.07
2018-02-22T22:42:49.739Z,19.43
2018-02-22T22:45:19.057Z,16.87
2018-02-22T22:47:49.015Z,16.47
2018-02-22T22:50:18.499Z,14.60
2018-02-22T22:52:47.872Z,14.43
2018-02-22T22:55:17.203Z,17.67
2018-02-22T22:57:46.581Z,18.87
2018-02-22T23:00:17.475Z,16.37
2018-02-22T23:03:01.339Z,16.47
2018-02-22T23:05:30.626Z,16.37
2018-02-22T23:07:59.951Z,15.20
2018-02-22T23:10:30.045Z,15.33
2018-02-22T23:13:00.607Z,16.60
2018-02-22T23:15:30.855Z,18.77
2018-02-22T23:18:00.923Z,17.50
2018-02-22T23:20:30.226Z,17.37
2018-02-22T23:22:59.503Z,17.90
2018-02-22T23:25:28.847Z,15.57
2018-02-22T23:27:58.189Z,20.77
2018-02-22T23:30:27.458Z,17.07
2018-02-22T23:32:56.733Z,18.17
2018-02-22T23:35:26.070Z,16.03
2018-02-22T23:37:56.217Z,18.57
2018-02-22T23:40:31.810Z,16.50
2018-02-22T23:43:01.581Z,19.50
2018-02-22T23:45:30.937Z,15.30
2018-02-22T23:48:00.291Z,17.93
2018-02-22T23:50:29.662Z,17.13
2018-02-22T23:52:58.962Z,15.90
2018-02-22T23:55:29.013Z,18.13
2018-02-22T23:57:58.377Z,19.00
